Terminal Aerodrome Forecast
Issued by NWS

Home | Current Version | Previous Version | Text Only | Print | Product List | Glossary On
Versions: 1 2 3 4 5 6 7 8 9 10 11 12 13 14 15 16 17 18 19 20 21 22 23 24
055
FTUS41 KBGM 252336
TAFELM
TAF
KELM 252336Z 2600/2624 VRB04KT P6SM BKN025 BKN035
     FM260500 VRB02KT P6SM SCT035
      TEMPO 2606/2610 2SM BR
     FM261000 00000KT 1SM BR FEW003
     FM261500 20008KT P6SM BKN035=

USA.gov is the U.S. government's official web portal to all federal, state and local government web resources and services.